sensor_id;sensor_type;location;lat;lon;timestamp;P1;durP1;ratioP1;P2;durP2;ratioP2
35026;SDS011;60696;51.426;6.934;2023-02-02T00:01:42;11.40;;;2.78;;
35026;SDS011;60696;51.426;6.934;2023-02-02T00:04:14;13.07;;;3.33;;
35026;SDS011;60696;51.426;6.934;2023-02-02T00:06:44;16.08;;;4.03;;
35026;SDS011;60696;51.426;6.934;2023-02-02T00:09:13;11.02;;;2.95;;
35026;SDS011;60696;51.426;6.934;2023-02-02T00:11:41;9.65;;;2.78;;
35026;SDS011;60696;51.426;6.934;2023-02-02T00:14:08;19.38;;;3.47;;
35026;SDS011;60696;51.426;6.934;2023-02-02T00:16:34;17.30;;;2.90;;
35026;SDS011;60696;51.426;6.934;2023-02-02T00:19:02;14.43;;;2.92;;
35026;SDS011;60696;51.426;6.934;2023-02-02T00:21:39;12.20;;;2.72;;
35026;SDS011;60696;51.426;6.934;2023-02-02T00:24:06;19.27;;;3.08;;
35026;SDS011;60696;51.426;6.934;2023-02-02T00:26:33;8.13;;;1.60;;
35026;SDS011;60696;51.426;6.934;2023-02-02T00:28:59;12.90;;;2.95;;
35026;SDS011;60696;51.426;6.934;2023-02-02T00:31:25;7.63;;;1.95;;
35026;SDS011;60696;51.426;6.934;2023-02-02T00:33:51;3.30;;;1.70;;
35026;SDS011;60696;51.426;6.934;2023-02-02T00:36:17;9.18;;;1.20;;
35026;SDS011;60696;51.426;6.934;2023-02-02T00:38:44;8.75;;;1.50;;
35026;SDS011;60696;51.426;6.934;2023-02-02T00:41:12;3.70;;;1.42;;
35026;SDS011;60696;51.426;6.934;2023-02-02T00:43:38;8.75;;;2.00;;
35026;SDS011;60696;51.426;6.934;2023-02-02T00:46:04;8.32;;;1.98;;
35026;SDS011;60696;51.426;6.934;2023-02-02T00:48:30;9.55;;;2.35;;
35026;SDS011;60696;51.426;6.934;2023-02-02T00:50:55;7.47;;;2.30;;
35026;SDS011;60696;51.426;6.934;2023-02-02T00:53:21;11.00;;;2.58;;
35026;SDS011;60696;51.426;6.934;2023-02-02T00:55:47;12.95;;;2.90;;
35026;SDS011;60696;51.426;6.934;2023-02-02T00:58:13;13.45;;;3.58;;
35026;SDS011;60696;51.426;6.934;2023-02-02T01:00:38;7.45;;;2.85;;
35026;SDS011;60696;51.426;6.934;2023-02-02T01:03:04;15.25;;;3.78;;
35026;SDS011;60696;51.426;6.934;2023-02-02T01:05:31;9.63;;;3.83;;
35026;SDS011;60696;51.426;6.934;2023-02-02T01:07:58;17.67;;;4.47;;
35026;SDS011;60696;51.426;6.934;2023-02-02T01:10:23;18.63;;;4.68;;
35026;SDS011;60696;51.426;6.934;2023-02-02T01:12:49;15.45;;;4.88;;
35026;SDS011;60696;51.426;6.934;2023-02-02T01:15:15;18.60;;;4.07;;
35026;SDS011;60696;51.426;6.934;2023-02-02T01:17:41;13.68;;;3.63;;
35026;SDS011;60696;51.426;6.934;2023-02-02T01:20:06;20.25;;;4.53;;
35026;SDS011;60696;51.426;6.934;2023-02-02T01:22:34;18.23;;;4.22;;
35026;SDS011;60696;51.426;6.934;2023-02-02T01:25:02;10.02;;;3.42;;
35026;SDS011;60696;51.426;6.934;2023-02-02T01:27:28;17.17;;;3.60;;
35026;SDS011;60696;51.426;6.934;2023-02-02T01:29:54;15.05;;;4.22;;
35026;SDS011;60696;51.426;6.934;2023-02-02T01:32:19;16.48;;;2.90;;
35026;SDS011;60696;51.426;6.934;2023-02-02T01:34:45;15.85;;;3.47;;
35026;SDS011;60696;51.426;6.934;2023-02-02T01:37:11;13.25;;;3.38;;
35026;SDS011;60696;51.426;6.934;2023-02-02T01:39:36;12.43;;;3.80;;
35026;SDS011;60696;51.426;6.934;2023-02-02T01:42:02;17.85;;;3.72;;
35026;SDS011;60696;51.426;6.934;2023-02-02T01:47:38;7.85;;;2.58;;
35026;SDS011;60696;51.426;6.934;2023-02-02T01:50:17;14.05;;;3.35;;
35026;SDS011;60696;51.426;6.934;2023-02-02T01:52:46;14.75;;;3.30;;
35026;SDS011;60696;51.426;6.934;2023-02-02T01:55:14;20.23;;;4.03;;
35026;SDS011;60696;51.426;6.934;2023-02-02T01:57:46;20.95;;;4.15;;
35026;SDS011;60696;51.426;6.934;2023-02-02T02:00:18;18.35;;;4.68;;
35026;SDS011;60696;51.426;6.934;2023-02-02T02:02:51;12.38;;;3.83;;
35026;SDS011;60696;51.426;6.934;2023-02-02T02:05:30;16.98;;;3.75;;
35026;SDS011;60696;51.426;6.934;2023-02-02T02:08:18;16.33;;;3.05;;
35026;SDS011;60696;51.426;6.934;2023-02-02T02:10:50;22.65;;;3.58;;
35026;SDS011;60696;51.426;6.934;2023-02-02T02:13:16;13.32;;;3.55;;
35026;SDS011;60696;51.426;6.934;2023-02-02T02:15:56;17.77;;;3.85;;
35026;SDS011;60696;51.426;6.934;2023-02-02T02:18:49;18.23;;;3.00;;
35026;SDS011;60696;51.426;6.934;2023-02-02T02:24:31;13.68;;;2.67;;
35026;SDS011;60696;51.426;6.934;2023-02-02T02:30:45;19.67;;;3.78;;
35026;SDS011;60696;51.426;6.934;2023-02-02T02:33:19;20.90;;;3.30;;
35026;SDS011;60696;51.426;6.934;2023-02-02T02:35:55;17.55;;;3.60;;
35026;SDS011;60696;51.426;6.934;2023-02-02T02:38:35;15.13;;;3.30;;
35026;SDS011;60696;51.426;6.934;2023-02-02T02:41:20;10.23;;;3.10;;
35026;SDS011;60696;51.426;6.934;2023-02-02T02:43:51;14.93;;;2.85;;
35026;SDS011;60696;51.426;6.934;2023-02-02T02:46:21;17.77;;;4.07;;
35026;SDS011;60696;51.426;6.934;2023-02-02T02:48:47;19.33;;;3.75;;
35026;SDS011;60696;51.426;6.934;2023-02-02T02:54:14;21.55;;;4.15;;
35026;SDS011;60696;51.426;6.934;2023-02-02T03:00:17;14.50;;;3.10;;
35026;SDS011;60696;51.426;6.934;2023-02-02T03:10:47;16.73;;;4.30;;
35026;SDS011;60696;51.426;6.934;2023-02-02T03:13:13;14.57;;;4.35;;
35026;SDS011;60696;51.426;6.934;2023-02-02T03:15:41;11.60;;;3.92;;
35026;SDS011;60696;51.426;6.934;2023-02-02T03:18:10;13.38;;;4.20;;
35026;SDS011;60696;51.426;6.934;2023-02-02T03:20:37;15.07;;;4.65;;
35026;SDS011;60696;51.426;6.934;2023-02-02T03:23:03;13.50;;;4.53;;
35026;SDS011;60696;51.426;6.934;2023-02-02T03:25:29;17.52;;;4.20;;
35026;SDS011;60696;51.426;6.934;2023-02-02T03:27:54;20.17;;;4.80;;
35026;SDS011;60696;51.426;6.934;2023-02-02T03:30:20;14.43;;;4.30;;
35026;SDS011;60696;51.426;6.934;2023-02-02T03:32:46;12.25;;;3.83;;
35026;SDS011;60696;51.426;6.934;2023-02-02T03:35:13;26.05;;;4.40;;
35026;SDS011;60696;51.426;6.934;2023-02-02T03:37:39;19.60;;;4.30;;
35026;SDS011;60696;51.426;6.934;2023-02-02T03:40:04;17.75;;;4.60;;
35026;SDS011;60696;51.426;6.934;2023-02-02T03:42:30;18.50;;;4.22;;
35026;SDS011;60696;51.426;6.934;2023-02-02T03:44:56;15.32;;;3.90;;
35026;SDS011;60696;51.426;6.934;2023-02-02T03:47:22;15.57;;;4.22;;
35026;SDS011;60696;51.426;6.934;2023-02-02T03:49:47;22.58;;;4.57;;
35026;SDS011;60696;51.426;6.934;2023-02-02T03:52:13;17.40;;;4.25;;
35026;SDS011;60696;51.426;6.934;2023-02-02T03:54:38;14.32;;;4.25;;
35026;SDS011;60696;51.426;6.934;2023-02-02T03:57:04;12.45;;;3.60;;
35026;SDS011;60696;51.426;6.934;2023-02-02T03:59:29;15.60;;;3.90;;
35026;SDS011;60696;51.426;6.934;2023-02-02T04:01:55;18.02;;;4.05;;
35026;SDS011;60696;51.426;6.934;2023-02-02T04:04:21;10.73;;;3.85;;
35026;SDS011;60696;51.426;6.934;2023-02-02T04:06:46;22.60;;;3.97;;
35026;SDS011;60696;51.426;6.934;2023-02-02T04:09:12;21.63;;;4.35;;
35026;SDS011;60696;51.426;6.934;2023-02-02T04:11:37;13.05;;;4.30;;
35026;SDS011;60696;51.426;6.934;2023-02-02T04:14:03;19.83;;;4.00;;
35026;SDS011;60696;51.426;6.934;2023-02-02T04:16:28;21.80;;;4.53;;
35026;SDS011;60696;51.426;6.934;2023-02-02T04:18:58;28.38;;;4.80;;
35026;SDS011;60696;51.426;6.934;2023-02-02T04:21:24;22.17;;;4.25;;
35026;SDS011;60696;51.426;6.934;2023-02-02T04:23:49;15.85;;;3.75;;
35026;SDS011;60696;51.426;6.934;2023-02-02T04:26:15;11.68;;;4.15;;
35026;SDS011;60696;51.426;6.934;2023-02-02T04:28:41;21.42;;;4.90;;
35026;SDS011;60696;51.426;6.934;2023-02-02T04:31:06;17.33;;;5.20;;
35026;SDS011;60696;51.426;6.934;2023-02-02T04:33:32;24.02;;;4.57;;
35026;SDS011;60696;51.426;6.934;2023-02-02T04:35:58;23.20;;;5.53;;
35026;SDS011;60696;51.426;6.934;2023-02-02T04:38:23;12.57;;;3.75;;
35026;SDS011;60696;51.426;6.934;2023-02-02T04:40:49;16.35;;;4.65;;
35026;SDS011;60696;51.426;6.934;2023-02-02T04:43:15;21.00;;;4.15;;
35026;SDS011;60696;51.426;6.934;2023-02-02T04:45:40;14.77;;;3.70;;
35026;SDS011;60696;51.426;6.934;2023-02-02T04:48:06;21.67;;;4.35;;
35026;SDS011;60696;51.426;6.934;2023-02-02T04:50:33;19.48;;;3.92;;
35026;SDS011;60696;51.426;6.934;2023-02-02T04:52:58;20.42;;;4.20;;
35026;SDS011;60696;51.426;6.934;2023-02-02T04:55:24;17.17;;;3.60;;
35026;SDS011;60696;51.426;6.934;2023-02-02T04:57:49;17.02;;;2.85;;
35026;SDS011;60696;51.426;6.934;2023-02-02T05:00:15;10.68;;;3.25;;
35026;SDS011;60696;51.426;6.934;2023-02-02T05:02:41;25.23;;;4.32;;
35026;SDS011;60696;51.426;6.934;2023-02-02T05:05:08;15.48;;;3.75;;
35026;SDS011;60696;51.426;6.934;2023-02-02T05:07:37;13.65;;;2.88;;
35026;SDS011;60696;51.426;6.934;2023-02-02T05:10:04;26.27;;;4.03;;
35026;SDS011;60696;51.426;6.934;2023-02-02T05:12:30;19.63;;;3.45;;
35026;SDS011;60696;51.426;6.934;2023-02-02T05:14:56;26.33;;;3.10;;
35026;SDS011;60696;51.426;6.934;2023-02-02T05:17:24;12.00;;;3.25;;
35026;SDS011;60696;51.426;6.934;2023-02-02T05:19:50;13.65;;;3.42;;
35026;SDS011;60696;51.426;6.934;2023-02-02T05:22:16;19.33;;;3.75;;
35026;SDS011;60696;51.426;6.934;2023-02-02T05:24:42;17.48;;;3.95;;
35026;SDS011;60696;51.426;6.934;2023-02-02T05:27:07;24.35;;;4.00;;
35026;SDS011;60696;51.426;6.934;2023-02-02T05:29:33;12.57;;;3.25;;
35026;SDS011;60696;51.426;6.934;2023-02-02T05:31:58;22.33;;;4.20;;
35026;SDS011;60696;51.426;6.934;2023-02-02T05:34:24;25.70;;;4.53;;
35026;SDS011;60696;51.426;6.934;2023-02-02T05:36:50;17.38;;;2.88;;
35026;SDS011;60696;51.426;6.934;2023-02-02T05:39:16;17.17;;;4.63;;
35026;SDS011;60696;51.426;6.934;2023-02-02T05:41:42;14.93;;;3.90;;
35026;SDS011;60696;51.426;6.934;2023-02-02T05:44:08;27.05;;;3.63;;
35026;SDS011;60696;51.426;6.934;2023-02-02T05:46:36;22.20;;;3.90;;
35026;SDS011;60696;51.426;6.934;2023-02-02T05:49:02;15.07;;;3.60;;
35026;SDS011;60696;51.426;6.934;2023-02-02T05:51:31;20.90;;;4.72;;
35026;SDS011;60696;51.426;6.934;2023-02-02T05:53:59;20.80;;;3.20;;
35026;SDS011;60696;51.426;6.934;2023-02-02T05:56:24;17.33;;;3.35;;
35026;SDS011;60696;51.426;6.934;2023-02-02T05:58:50;10.77;;;3.90;;
35026;SDS011;60696;51.426;6.934;2023-02-02T06:01:16;19.88;;;4.47;;
35026;SDS011;60696;51.426;6.934;2023-02-02T06:03:42;18.45;;;5.07;;
35026;SDS011;60696;51.426;6.934;2023-02-02T06:06:08;15.18;;;4.03;;
35026;SDS011;60696;51.426;6.934;2023-02-02T06:08:34;17.13;;;4.00;;
35026;SDS011;60696;51.426;6.934;2023-02-02T06:11:07;26.58;;;5.20;;
35026;SDS011;60696;51.426;6.934;2023-02-02T06:13:36;19.00;;;3.35;;
35026;SDS011;60696;51.426;6.934;2023-02-02T06:16:02;20.42;;;4.32;;
35026;SDS011;60696;51.426;6.934;2023-02-02T06:18:28;16.88;;;3.88;;
35026;SDS011;60696;51.426;6.934;2023-02-02T06:20:57;12.13;;;2.78;;
35026;SDS011;60696;51.426;6.934;2023-02-02T06:23:23;16.60;;;3.78;;
35026;SDS011;60696;51.426;6.934;2023-02-02T06:25:49;8.10;;;2.20;;
35026;SDS011;60696;51.426;6.934;2023-02-02T06:28:15;12.48;;;3.75;;
35026;SDS011;60696;51.426;6.934;2023-02-02T06:30:40;24.73;;;4.18;;
35026;SDS011;60696;51.426;6.934;2023-02-02T06:33:06;18.67;;;3.97;;
35026;SDS011;60696;51.426;6.934;2023-02-02T06:35:32;12.75;;;3.50;;
35026;SDS011;60696;51.426;6.934;2023-02-02T06:37:58;25.13;;;3.70;;
35026;SDS011;60696;51.426;6.934;2023-02-02T06:40:24;21.50;;;3.47;;
35026;SDS011;60696;51.426;6.934;2023-02-02T06:42:57;14.68;;;3.80;;
35026;SDS011;60696;51.426;6.934;2023-02-02T06:45:24;19.92;;;4.15;;
35026;SDS011;60696;51.426;6.934;2023-02-02T06:47:50;23.05;;;4.63;;
35026;SDS011;60696;51.426;6.934;2023-02-02T06:50:16;9.55;;;3.17;;
35026;SDS011;60696;51.426;6.934;2023-02-02T06:52:48;22.52;;;3.25;;
35026;SDS011;60696;51.426;6.934;2023-02-02T06:55:15;13.85;;;3.45;;
35026;SDS011;60696;51.426;6.934;2023-02-02T06:57:41;13.60;;;3.35;;
35026;SDS011;60696;51.426;6.934;2023-02-02T07:00:07;17.98;;;4.10;;
35026;SDS011;60696;51.426;6.934;2023-02-02T07:02:33;10.55;;;2.65;;
35026;SDS011;60696;51.426;6.934;2023-02-02T07:04:59;13.93;;;3.50;;
35026;SDS011;60696;51.426;6.934;2023-02-02T07:07:25;30.45;;;4.38;;
35026;SDS011;60696;51.426;6.934;2023-02-02T07:09:51;9.60;;;2.63;;
35026;SDS011;60696;51.426;6.934;2023-02-02T07:12:16;12.43;;;3.80;;
35026;SDS011;60696;51.426;6.934;2023-02-02T07:14:43;9.52;;;2.85;;
35026;SDS011;60696;51.426;6.934;2023-02-02T07:17:09;17.85;;;3.88;;
35026;SDS011;60696;51.426;6.934;2023-02-02T07:19:35;10.15;;;2.95;;
35026;SDS011;60696;51.426;6.934;2023-02-02T07:22:01;19.63;;;4.15;;
35026;SDS011;60696;51.426;6.934;2023-02-02T07:24:26;14.57;;;3.60;;
35026;SDS011;60696;51.426;6.934;2023-02-02T07:26:52;19.95;;;4.85;;
35026;SDS011;60696;51.426;6.934;2023-02-02T07:29:18;16.42;;;4.07;;
35026;SDS011;60696;51.426;6.934;2023-02-02T07:31:43;27.25;;;5.20;;
35026;SDS011;60696;51.426;6.934;2023-02-02T07:34:09;11.48;;;4.10;;
35026;SDS011;60696;51.426;6.934;2023-02-02T07:36:35;19.08;;;4.43;;
35026;SDS011;60696;51.426;6.934;2023-02-02T07:39:01;23.00;;;5.50;;
35026;SDS011;60696;51.426;6.934;2023-02-02T07:41:28;18.40;;;4.53;;
35026;SDS011;60696;51.426;6.934;2023-02-02T07:43:55;13.45;;;3.53;;
35026;SDS011;60696;51.426;6.934;2023-02-02T07:46:20;17.48;;;4.50;;
35026;SDS011;60696;51.426;6.934;2023-02-02T07:48:46;12.95;;;4.60;;
35026;SDS011;60696;51.426;6.934;2023-02-02T07:51:15;18.00;;;4.45;;
35026;SDS011;60696;51.426;6.934;2023-02-02T07:53:45;17.50;;;4.55;;
35026;SDS011;60696;51.426;6.934;2023-02-02T07:56:19;12.75;;;4.00;;
35026;SDS011;60696;51.426;6.934;2023-02-02T07:58:46;14.68;;;4.97;;
35026;SDS011;60696;51.426;6.934;2023-02-02T08:01:13;14.57;;;4.00;;
35026;SDS011;60696;51.426;6.934;2023-02-02T08:03:39;14.50;;;4.03;;
35026;SDS011;60696;51.426;6.934;2023-02-02T08:06:14;12.88;;;4.20;;
35026;SDS011;60696;51.426;6.934;2023-02-02T08:08:43;15.63;;;4.22;;
35026;SDS011;60696;51.426;6.934;2023-02-02T08:11:10;7.75;;;2.17;;
35026;SDS011;60696;51.426;6.934;2023-02-02T08:13:38;5.13;;;1.52;;
35026;SDS011;60696;51.426;6.934;2023-02-02T08:16:04;13.93;;;3.58;;
35026;SDS011;60696;51.426;6.934;2023-02-02T08:18:31;13.07;;;3.85;;
35026;SDS011;60696;51.426;6.934;2023-02-02T08:20:58;14.73;;;5.07;;
35026;SDS011;60696;51.426;6.934;2023-02-02T08:23:24;15.77;;;4.13;;
35026;SDS011;60696;51.426;6.934;2023-02-02T08:25:50;14.32;;;3.50;;
35026;SDS011;60696;51.426;6.934;2023-02-02T08:28:17;14.07;;;3.95;;
35026;SDS011;60696;51.426;6.934;2023-02-02T08:30:43;10.25;;;3.67;;
35026;SDS011;60696;51.426;6.934;2023-02-02T08:33:09;14.80;;;3.92;;
35026;SDS011;60696;51.426;6.934;2023-02-02T08:35:39;15.05;;;3.80;;
35026;SDS011;60696;51.426;6.934;2023-02-02T08:38:08;17.20;;;4.18;;
35026;SDS011;60696;51.426;6.934;2023-02-02T08:40:34;16.75;;;4.28;;
35026;SDS011;60696;51.426;6.934;2023-02-02T08:42:59;25.27;;;4.60;;
35026;SDS011;60696;51.426;6.934;2023-02-02T08:45:25;15.13;;;3.38;;
35026;SDS011;60696;51.426;6.934;2023-02-02T08:47:51;9.95;;;3.50;;
35026;SDS011;60696;51.426;6.934;2023-02-02T08:50:17;20.23;;;4.60;;
35026;SDS011;60696;51.426;6.934;2023-02-02T08:52:43;18.52;;;4.93;;
35026;SDS011;60696;51.426;6.934;2023-02-02T08:55:09;14.95;;;4.10;;
35026;SDS011;60696;51.426;6.934;2023-02-02T08:57:35;19.90;;;3.97;;
35026;SDS011;60696;51.426;6.934;2023-02-02T09:00:02;10.65;;;3.67;;
35026;SDS011;60696;51.426;6.934;2023-02-02T09:02:29;10.88;;;4.28;;
35026;SDS011;60696;51.426;6.934;2023-02-02T09:04:54;9.40;;;3.95;;
35026;SDS011;60696;51.426;6.934;2023-02-02T09:07:20;14.80;;;4.18;;
35026;SDS011;60696;51.426;6.934;2023-02-02T09:09:45;16.23;;;4.05;;
35026;SDS011;60696;51.426;6.934;2023-02-02T09:12:11;15.95;;;4.68;;
35026;SDS011;60696;51.426;6.934;2023-02-02T09:14:36;13.32;;;4.07;;
35026;SDS011;60696;51.426;6.934;2023-02-02T09:17:02;20.08;;;4.78;;
35026;SDS011;60696;51.426;6.934;2023-02-02T09:19:28;16.27;;;4.90;;
35026;SDS011;60696;51.426;6.934;2023-02-02T09:21:53;17.38;;;5.07;;
35026;SDS011;60696;51.426;6.934;2023-02-02T09:24:19;13.30;;;4.32;;
35026;SDS011;60696;51.426;6.934;2023-02-02T09:26:44;14.13;;;4.63;;
35026;SDS011;60696;51.426;6.934;2023-02-02T09:29:11;22.80;;;4.90;;
35026;SDS011;60696;51.426;6.934;2023-02-02T09:31:38;18.88;;;4.97;;
35026;SDS011;60696;51.426;6.934;2023-02-02T09:34:05;17.92;;;5.13;;
35026;SDS011;60696;51.426;6.934;2023-02-02T09:36:32;19.48;;;5.50;;
35026;SDS011;60696;51.426;6.934;2023-02-02T09:38:59;21.17;;;4.88;;
35026;SDS011;60696;51.426;6.934;2023-02-02T09:52:40;25.27;;;6.40;;
35026;SDS011;60696;51.426;6.934;2023-02-02T09:55:28;19.10;;;5.80;;
35026;SDS011;60696;51.426;6.934;2023-02-02T09:58:04;21.20;;;4.63;;
35026;SDS011;60696;51.426;6.934;2023-02-02T10:00:46;24.60;;;5.85;;
35026;SDS011;60696;51.426;6.934;2023-02-02T10:06:38;19.95;;;5.72;;
35026;SDS011;60696;51.426;6.934;2023-02-02T10:09:42;17.08;;;5.25;;
35026;SDS011;60696;51.426;6.934;2023-02-02T10:17:47;12.70;;;4.97;;
35026;SDS011;60696;51.426;6.934;2023-02-02T10:20:24;19.25;;;5.10;;
35026;SDS011;60696;51.426;6.934;2023-02-02T10:37:01;20.05;;;5.05;;
35026;SDS011;60696;51.426;6.934;2023-02-02T10:40:09;21.50;;;5.97;;
35026;SDS011;60696;51.426;6.934;2023-02-02T10:42:38;14.73;;;5.43;;
35026;SDS011;60696;51.426;6.934;2023-02-02T10:45:36;19.17;;;5.97;;
35026;SDS011;60696;51.426;6.934;2023-02-02T10:48:14;18.88;;;6.32;;
35026;SDS011;60696;51.426;6.934;2023-02-02T10:50:43;23.13;;;6.40;;
35026;SDS011;60696;51.426;6.934;2023-02-02T10:53:13;26.15;;;6.30;;
35026;SDS011;60696;51.426;6.934;2023-02-02T10:55:41;23.85;;;6.22;;
35026;SDS011;60696;51.426;6.934;2023-02-02T10:58:18;21.77;;;5.25;;
35026;SDS011;60696;51.426;6.934;2023-02-02T11:00:51;17.85;;;6.47;;
35026;SDS011;60696;51.426;6.934;2023-02-02T11:03:20;16.80;;;5.90;;
35026;SDS011;60696;51.426;6.934;2023-02-02T11:05:47;15.18;;;5.53;;
35026;SDS011;60696;51.426;6.934;2023-02-02T11:08:41;13.73;;;5.57;;
35026;SDS011;60696;51.426;6.934;2023-02-02T11:11:19;17.08;;;5.68;;
35026;SDS011;60696;51.426;6.934;2023-02-02T11:13:50;18.88;;;4.95;;
35026;SDS011;60696;51.426;6.934;2023-02-02T11:16:21;13.73;;;5.18;;
35026;SDS011;60696;51.426;6.934;2023-02-02T11:18:50;15.05;;;5.57;;
35026;SDS011;60696;51.426;6.934;2023-02-02T11:21:25;23.65;;;5.65;;
35026;SDS011;60696;51.426;6.934;2023-02-02T11:24:02;12.15;;;4.97;;
35026;SDS011;60696;51.426;6.934;2023-02-02T11:39:52;13.82;;;4.13;;
35026;SDS011;60696;51.426;6.934;2023-02-02T11:42:19;16.48;;;5.05;;
35026;SDS011;60696;51.426;6.934;2023-02-02T11:44:49;13.32;;;4.78;;
35026;SDS011;60696;51.426;6.934;2023-02-02T11:47:25;12.77;;;4.88;;
35026;SDS011;60696;51.426;6.934;2023-02-02T11:49:53;11.90;;;4.70;;
35026;SDS011;60696;51.426;6.934;2023-02-02T11:52:21;14.88;;;4.22;;
35026;SDS011;60696;51.426;6.934;2023-02-02T11:54:49;14.18;;;4.55;;
35026;SDS011;60696;51.426;6.934;2023-02-02T11:57:21;14.32;;;4.65;;
35026;SDS011;60696;51.426;6.934;2023-02-02T11:59:49;11.20;;;3.95;;
35026;SDS011;60696;51.426;6.934;2023-02-02T12:02:30;15.73;;;4.55;;
35026;SDS011;60696;51.426;6.934;2023-02-02T12:05:42;14.02;;;4.30;;
35026;SDS011;60696;51.426;6.934;2023-02-02T12:07:45;9.68;;;3.38;;
35026;SDS011;60696;51.426;6.934;2023-02-02T12:13:06;9.98;;;3.65;;
35026;SDS011;60696;51.426;6.934;2023-02-02T12:15:52;11.05;;;3.28;;
35026;SDS011;60696;51.426;6.934;2023-02-02T12:21:27;15.65;;;4.30;;
35026;SDS011;60696;51.426;6.934;2023-02-02T12:27:24;14.38;;;3.65;;
35026;SDS011;60696;51.426;6.934;2023-02-02T12:30:14;14.52;;;3.80;;
35026;SDS011;60696;51.426;6.934;2023-02-02T12:38:29;11.85;;;3.25;;
35026;SDS011;60696;51.426;6.934;2023-02-02T13:03:08;10.73;;;3.85;;
35026;SDS011;60696;51.426;6.934;2023-02-02T13:05:47;12.30;;;3.90;;
35026;SDS011;60696;51.426;6.934;2023-02-02T13:08:35;11.30;;;4.13;;
35026;SDS011;60696;51.426;6.934;2023-02-02T13:11:41;11.35;;;3.70;;
35026;SDS011;60696;51.426;6.934;2023-02-02T13:14:16;18.65;;;3.88;;
35026;SDS011;60696;51.426;6.934;2023-02-02T13:17:10;10.13;;;3.63;;
35026;SDS011;60696;51.426;6.934;2023-02-02T13:19:49;5.75;;;3.75;;
35026;SDS011;60696;51.426;6.934;2023-02-02T13:22:19;11.20;;;4.25;;
35026;SDS011;60696;51.426;6.934;2023-02-02T13:24:49;14.93;;;3.50;;
35026;SDS011;60696;51.426;6.934;2023-02-02T13:27:18;16.52;;;3.45;;
35026;SDS011;60696;51.426;6.934;2023-02-02T13:29:53;10.52;;;3.50;;
35026;SDS011;60696;51.426;6.934;2023-02-02T13:32:41;8.25;;;3.00;;
35026;SDS011;60696;51.426;6.934;2023-02-02T13:40:37;8.93;;;3.30;;
35026;SDS011;60696;51.426;6.934;2023-02-02T13:43:13;17.08;;;3.53;;
35026;SDS011;60696;51.426;6.934;2023-02-02T13:58:43;11.60;;;3.88;;
35026;SDS011;60696;51.426;6.934;2023-02-02T14:01:30;14.63;;;3.15;;
35026;SDS011;60696;51.426;6.934;2023-02-02T14:03:56;9.15;;;3.03;;
35026;SDS011;60696;51.426;6.934;2023-02-02T14:06:25;10.35;;;3.38;;
35026;SDS011;60696;51.426;6.934;2023-02-02T14:08:53;14.73;;;3.40;;
35026;SDS011;60696;51.426;6.934;2023-02-02T14:13:53;12.15;;;3.67;;
35026;SDS011;60696;51.426;6.934;2023-02-02T14:16:41;15.60;;;3.55;;
35026;SDS011;60696;51.426;6.934;2023-02-02T14:24:42;11.65;;;3.70;;
35026;SDS011;60696;51.426;6.934;2023-02-02T14:29:36;21.10;;;4.10;;
35026;SDS011;60696;51.426;6.934;2023-02-02T14:32:30;20.95;;;4.80;;
35026;SDS011;60696;51.426;6.934;2023-02-02T14:37:41;15.52;;;5.38;;
35026;SDS011;60696;51.426;6.934;2023-02-02T14:40:16;19.83;;;5.82;;
35026;SDS011;60696;51.426;6.934;2023-02-02T14:48:38;16.98;;;6.10;;
35026;SDS011;60696;51.426;6.934;2023-02-02T14:51:17;11.85;;;5.43;;
35026;SDS011;60696;51.426;6.934;2023-02-02T14:53:50;20.63;;;7.38;;
35026;SDS011;60696;51.426;6.934;2023-02-02T14:56:18;13.73;;;6.55;;
35026;SDS011;60696;51.426;6.934;2023-02-02T14:58:52;10.75;;;5.70;;
35026;SDS011;60696;51.426;6.934;2023-02-02T15:01:24;18.05;;;6.85;;
35026;SDS011;60696;51.426;6.934;2023-02-02T15:04:20;17.45;;;6.47;;
35026;SDS011;60696;51.426;6.934;2023-02-02T15:06:42;17.83;;;6.30;;
35026;SDS011;60696;51.426;6.934;2023-02-02T15:14:22;20.00;;;7.50;;
35026;SDS011;60696;51.426;6.934;2023-02-02T15:16:55;11.90;;;6.35;;
35026;SDS011;60696;51.426;6.934;2023-02-02T15:19:32;15.43;;;6.93;;
35026;SDS011;60696;51.426;6.934;2023-02-02T15:25:14;24.58;;;8.15;;
35026;SDS011;60696;51.426;6.934;2023-02-02T15:28:06;17.05;;;7.50;;
35026;SDS011;60696;51.426;6.934;2023-02-02T15:30:47;19.05;;;7.45;;
35026;SDS011;60696;51.426;6.934;2023-02-02T15:35:49;23.48;;;7.07;;
35026;SDS011;60696;51.426;6.934;2023-02-02T15:38:17;20.92;;;7.97;;
35026;SDS011;60696;51.426;6.934;2023-02-02T15:40:44;14.73;;;7.63;;
35026;SDS011;60696;51.426;6.934;2023-02-02T15:43:10;15.48;;;7.03;;
35026;SDS011;60696;51.426;6.934;2023-02-02T15:48:19;17.60;;;7.97;;
35026;SDS011;60696;51.426;6.934;2023-02-02T15:50:48;15.60;;;6.90;;
35026;SDS011;60696;51.426;6.934;2023-02-02T15:53:23;24.60;;;8.57;;
35026;SDS011;60696;51.426;6.934;2023-02-02T15:55:51;16.00;;;7.85;;
35026;SDS011;60696;51.426;6.934;2023-02-02T15:58:25;20.13;;;8.98;;
35026;SDS011;60696;51.426;6.934;2023-02-02T16:00:57;13.30;;;8.43;;
35026;SDS011;60696;51.426;6.934;2023-02-02T16:03:42;18.00;;;8.57;;
35026;SDS011;60696;51.426;6.934;2023-02-02T16:06:10;20.20;;;9.80;;
35026;SDS011;60696;51.426;6.934;2023-02-02T16:08:37;21.15;;;10.02;;
35026;SDS011;60696;51.426;6.934;2023-02-02T16:11:05;18.92;;;9.45;;
35026;SDS011;60696;51.426;6.934;2023-02-02T16:13:58;18.52;;;10.55;;
35026;SDS011;60696;51.426;6.934;2023-02-02T16:16:30;21.60;;;10.23;;
35026;SDS011;60696;51.426;6.934;2023-02-02T16:23:59;16.23;;;8.70;;
35026;SDS011;60696;51.426;6.934;2023-02-02T16:26:29;15.52;;;8.23;;
35026;SDS011;60696;51.426;6.934;2023-02-02T16:28:56;19.13;;;11.60;;
35026;SDS011;60696;51.426;6.934;2023-02-02T16:31:23;17.83;;;10.52;;
35026;SDS011;60696;51.426;6.934;2023-02-02T16:33:49;20.27;;;11.45;;
35026;SDS011;60696;51.426;6.934;2023-02-02T16:36:19;17.65;;;9.52;;
35026;SDS011;60696;51.426;6.934;2023-02-02T16:38:46;17.20;;;10.48;;
35026;SDS011;60696;51.426;6.934;2023-02-02T16:41:24;18.70;;;11.40;;
35026;SDS011;60696;51.426;6.934;2023-02-02T16:44:26;20.48;;;10.52;;
35026;SDS011;60696;51.426;6.934;2023-02-02T16:47:00;15.18;;;10.65;;
35026;SDS011;60696;51.426;6.934;2023-02-02T16:49:26;20.10;;;11.60;;
35026;SDS011;60696;51.426;6.934;2023-02-02T16:52:13;17.48;;;11.38;;
35026;SDS011;60696;51.426;6.934;2023-02-02T16:54:48;19.23;;;11.43;;
35026;SDS011;60696;51.426;6.934;2023-02-02T16:57:20;14.48;;;10.27;;
35026;SDS011;60696;51.426;6.934;2023-02-02T16:59:54;18.47;;;10.37;;
35026;SDS011;60696;51.426;6.934;2023-02-02T17:02:29;15.95;;;9.75;;
35026;SDS011;60696;51.426;6.934;2023-02-02T17:05:00;17.20;;;11.18;;
35026;SDS011;60696;51.426;6.934;2023-02-02T17:07:28;17.58;;;10.25;;
35026;SDS011;60696;51.426;6.934;2023-02-02T17:12:43;15.73;;;10.55;;
35026;SDS011;60696;51.426;6.934;2023-02-02T17:17:40;13.52;;;9.15;;
35026;SDS011;60696;51.426;6.934;2023-02-02T17:20:07;19.50;;;10.10;;
35026;SDS011;60696;51.426;6.934;2023-02-02T17:22:34;14.27;;;9.18;;
35026;SDS011;60696;51.426;6.934;2023-02-02T17:25:04;15.60;;;9.93;;
35026;SDS011;60696;51.426;6.934;2023-02-02T17:27:30;12.80;;;7.97;;
35026;SDS011;60696;51.426;6.934;2023-02-02T17:30:01;14.77;;;9.57;;
35026;SDS011;60696;51.426;6.934;2023-02-02T17:32:28;13.07;;;8.85;;
35026;SDS011;60696;51.426;6.934;2023-02-02T17:34:54;15.00;;;9.60;;
35026;SDS011;60696;51.426;6.934;2023-02-02T17:37:19;15.63;;;9.73;;
35026;SDS011;60696;51.426;6.934;2023-02-02T17:39:45;16.17;;;9.38;;
35026;SDS011;60696;51.426;6.934;2023-02-02T17:42:22;12.02;;;8.85;;